sensor_id;sensor_type;location;lat;lon;timestamp;P1;durP1;ratioP1;P2;durP2;ratioP2
20458;SDS011;10388;52.314;7.938;2023-05-07T00:02:24;15.63;;;12.63;;
20458;SDS011;10388;52.314;7.938;2023-05-07T00:04:57;14.80;;;12.07;;
20458;SDS011;10388;52.314;7.938;2023-05-07T00:07:31;14.20;;;12.43;;
20458;SDS011;10388;52.314;7.938;2023-05-07T00:10:05;14.00;;;11.90;;
20458;SDS011;10388;52.314;7.938;2023-05-07T00:12:37;13.93;;;11.50;;
20458;SDS011;10388;52.314;7.938;2023-05-07T00:15:16;16.43;;;12.87;;
20458;SDS011;10388;52.314;7.938;2023-05-07T00:17:50;15.13;;;12.53;;
20458;SDS011;10388;52.314;7.938;2023-05-07T00:23:23;15.30;;;12.67;;
20458;SDS011;10388;52.314;7.938;2023-05-07T00:32:03;15.97;;;13.20;;
20458;SDS011;10388;52.314;7.938;2023-05-07T00:41:50;15.90;;;12.90;;
20458;SDS011;10388;52.314;7.938;2023-05-07T00:45:12;15.47;;;13.57;;
20458;SDS011;10388;52.314;7.938;2023-05-07T00:52:09;18.20;;;13.70;;
20458;SDS011;10388;52.314;7.938;2023-05-07T01:08:59;18.13;;;14.17;;
20458;SDS011;10388;52.314;7.938;2023-05-07T01:12:18;18.83;;;13.50;;
20458;SDS011;10388;52.314;7.938;2023-05-07T01:32:37;19.13;;;14.53;;
20458;SDS011;10388;52.314;7.938;2023-05-07T01:35:46;20.20;;;15.70;;
20458;SDS011;10388;52.314;7.938;2023-05-07T01:39:10;18.90;;;15.67;;
20458;SDS011;10388;52.314;7.938;2023-05-07T01:42:22;21.07;;;16.77;;
20458;SDS011;10388;52.314;7.938;2023-05-07T01:45:18;20.73;;;16.60;;
20458;SDS011;10388;52.314;7.938;2023-05-07T02:02:08;22.33;;;17.87;;
20458;SDS011;10388;52.314;7.938;2023-05-07T02:05:44;21.37;;;15.93;;
20458;SDS011;10388;52.314;7.938;2023-05-07T02:15:50;22.53;;;17.40;;
20458;SDS011;10388;52.314;7.938;2023-05-07T02:18:58;22.80;;;17.87;;
20458;SDS011;10388;52.314;7.938;2023-05-07T02:22:04;26.13;;;17.77;;
20458;SDS011;10388;52.314;7.938;2023-05-07T02:28:52;26.63;;;19.60;;
20458;SDS011;10388;52.314;7.938;2023-05-07T02:42:15;25.03;;;19.40;;
20458;SDS011;10388;52.314;7.938;2023-05-07T03:09:27;26.03;;;20.17;;
20458;SDS011;10388;52.314;7.938;2023-05-07T03:19:14;25.93;;;20.07;;
20458;SDS011;10388;52.314;7.938;2023-05-07T03:22:27;26.37;;;20.90;;
20458;SDS011;10388;52.314;7.938;2023-05-07T03:40:57;30.73;;;22.90;;
20458;SDS011;10388;52.314;7.938;2023-05-07T03:51:33;31.87;;;22.90;;
20458;SDS011;10388;52.314;7.938;2023-05-07T03:54:56;29.17;;;22.13;;
20458;SDS011;10388;52.314;7.938;2023-05-07T04:01:49;30.30;;;24.03;;
20458;SDS011;10388;52.314;7.938;2023-05-07T04:05:27;30.33;;;21.87;;
20458;SDS011;10388;52.314;7.938;2023-05-07T04:15:12;30.07;;;22.87;;
20458;SDS011;10388;52.314;7.938;2023-05-07T04:32:09;32.57;;;23.33;;
20458;SDS011;10388;52.314;7.938;2023-05-07T04:35:22;30.70;;;21.80;;
20458;SDS011;10388;52.314;7.938;2023-05-07T04:41:53;28.03;;;21.67;;
20458;SDS011;10388;52.314;7.938;2023-05-07T04:44:47;29.77;;;21.70;;
20458;SDS011;10388;52.314;7.938;2023-05-07T04:51:11;28.47;;;22.40;;
20458;SDS011;10388;52.314;7.938;2023-05-07T05:07:40;29.17;;;21.50;;
20458;SDS011;10388;52.314;7.938;2023-05-07T05:10:53;29.70;;;21.27;;
20458;SDS011;10388;52.314;7.938;2023-05-07T05:14:23;27.03;;;21.33;;
20458;SDS011;10388;52.314;7.938;2023-05-07T05:17:32;28.13;;;20.10;;
20458;SDS011;10388;52.314;7.938;2023-05-07T05:20:05;28.27;;;21.43;;
20458;SDS011;10388;52.314;7.938;2023-05-07T05:22:35;24.87;;;19.97;;
20458;SDS011;10388;52.314;7.938;2023-05-07T05:25:06;26.10;;;19.90;;
20458;SDS011;10388;52.314;7.938;2023-05-07T05:27:37;25.43;;;19.70;;
20458;SDS011;10388;52.314;7.938;2023-05-07T05:30:08;25.13;;;19.77;;
20458;SDS011;10388;52.314;7.938;2023-05-07T05:32:38;26.13;;;19.83;;
20458;SDS011;10388;52.314;7.938;2023-05-07T05:35:09;24.43;;;19.03;;
20458;SDS011;10388;52.314;7.938;2023-05-07T05:37:39;28.13;;;19.70;;
20458;SDS011;10388;52.314;7.938;2023-05-07T05:40:10;28.50;;;19.80;;
20458;SDS011;10388;52.314;7.938;2023-05-07T05:42:41;23.53;;;18.50;;
20458;SDS011;10388;52.314;7.938;2023-05-07T05:45:11;25.17;;;19.63;;
20458;SDS011;10388;52.314;7.938;2023-05-07T05:47:42;26.67;;;19.73;;
20458;SDS011;10388;52.314;7.938;2023-05-07T05:50:12;28.00;;;19.07;;
20458;SDS011;10388;52.314;7.938;2023-05-07T05:52:43;23.27;;;18.60;;
20458;SDS011;10388;52.314;7.938;2023-05-07T05:55:14;24.13;;;19.20;;
20458;SDS011;10388;52.314;7.938;2023-05-07T05:57:44;26.30;;;19.37;;
20458;SDS011;10388;52.314;7.938;2023-05-07T06:00:16;24.37;;;19.23;;
20458;SDS011;10388;52.314;7.938;2023-05-07T06:02:47;23.50;;;18.67;;
20458;SDS011;10388;52.314;7.938;2023-05-07T06:05:17;28.20;;;19.87;;
20458;SDS011;10388;52.314;7.938;2023-05-07T06:07:48;26.43;;;19.17;;
20458;SDS011;10388;52.314;7.938;2023-05-07T06:10:18;24.83;;;19.40;;
20458;SDS011;10388;52.314;7.938;2023-05-07T06:12:49;24.37;;;18.87;;
20458;SDS011;10388;52.314;7.938;2023-05-07T06:15:19;23.90;;;18.73;;
20458;SDS011;10388;52.314;7.938;2023-05-07T06:17:50;23.50;;;18.10;;
20458;SDS011;10388;52.314;7.938;2023-05-07T06:20:21;25.00;;;17.97;;
20458;SDS011;10388;52.314;7.938;2023-05-07T06:22:51;24.77;;;18.17;;
20458;SDS011;10388;52.314;7.938;2023-05-07T06:25:22;23.70;;;18.33;;
20458;SDS011;10388;52.314;7.938;2023-05-07T06:27:52;21.87;;;17.97;;
20458;SDS011;10388;52.314;7.938;2023-05-07T06:30:23;21.63;;;17.27;;
20458;SDS011;10388;52.314;7.938;2023-05-07T06:32:53;25.33;;;17.80;;
20458;SDS011;10388;52.314;7.938;2023-05-07T06:35:24;23.83;;;17.60;;
20458;SDS011;10388;52.314;7.938;2023-05-07T06:37:56;23.03;;;17.83;;
20458;SDS011;10388;52.314;7.938;2023-05-07T06:40:26;24.90;;;18.07;;
20458;SDS011;10388;52.314;7.938;2023-05-07T06:42:57;19.77;;;15.53;;
20458;SDS011;10388;52.314;7.938;2023-05-07T06:45:27;23.70;;;18.00;;
20458;SDS011;10388;52.314;7.938;2023-05-07T06:47:58;20.57;;;16.50;;
20458;SDS011;10388;52.314;7.938;2023-05-07T06:50:28;19.60;;;15.50;;
20458;SDS011;10388;52.314;7.938;2023-05-07T06:52:59;21.23;;;16.43;;
20458;SDS011;10388;52.314;7.938;2023-05-07T06:55:30;19.67;;;16.37;;
20458;SDS011;10388;52.314;7.938;2023-05-07T06:58:00;19.17;;;15.93;;
20458;SDS011;10388;52.314;7.938;2023-05-07T07:00:31;26.00;;;17.47;;
20458;SDS011;10388;52.314;7.938;2023-05-07T07:03:01;20.57;;;15.70;;
20458;SDS011;10388;52.314;7.938;2023-05-07T07:05:32;19.53;;;15.53;;
20458;SDS011;10388;52.314;7.938;2023-05-07T07:08:03;18.30;;;14.90;;
20458;SDS011;10388;52.314;7.938;2023-05-07T07:10:33;19.27;;;15.43;;
20458;SDS011;10388;52.314;7.938;2023-05-07T07:13:04;19.10;;;16.40;;
20458;SDS011;10388;52.314;7.938;2023-05-07T07:15:34;17.37;;;14.63;;
20458;SDS011;10388;52.314;7.938;2023-05-07T07:18:05;18.30;;;14.53;;
20458;SDS011;10388;52.314;7.938;2023-05-07T07:20:36;16.27;;;14.30;;
20458;SDS011;10388;52.314;7.938;2023-05-07T07:23:06;18.67;;;13.80;;
20458;SDS011;10388;52.314;7.938;2023-05-07T07:25:37;15.13;;;13.03;;
20458;SDS011;10388;52.314;7.938;2023-05-07T07:28:07;19.17;;;14.03;;
20458;SDS011;10388;52.314;7.938;2023-05-07T07:30:38;16.10;;;13.87;;
20458;SDS011;10388;52.314;7.938;2023-05-07T07:33:09;17.47;;;14.03;;
20458;SDS011;10388;52.314;7.938;2023-05-07T07:35:40;17.53;;;13.90;;
20458;SDS011;10388;52.314;7.938;2023-05-07T07:38:10;15.17;;;12.50;;
20458;SDS011;10388;52.314;7.938;2023-05-07T07:40:41;14.30;;;12.33;;
20458;SDS011;10388;52.314;7.938;2023-05-07T07:43:13;16.13;;;12.70;;
20458;SDS011;10388;52.314;7.938;2023-05-07T07:45:44;14.13;;;12.23;;
20458;SDS011;10388;52.314;7.938;2023-05-07T07:48:15;14.90;;;11.87;;
20458;SDS011;10388;52.314;7.938;2023-05-07T07:50:48;13.47;;;11.97;;
20458;SDS011;10388;52.314;7.938;2023-05-07T07:53:20;15.03;;;11.93;;
20458;SDS011;10388;52.314;7.938;2023-05-07T07:55:50;14.67;;;11.43;;
20458;SDS011;10388;52.314;7.938;2023-05-07T07:58:21;12.50;;;11.20;;
20458;SDS011;10388;52.314;7.938;2023-05-07T08:00:52;15.33;;;11.67;;
20458;SDS011;10388;52.314;7.938;2023-05-07T08:03:24;12.87;;;11.13;;
20458;SDS011;10388;52.314;7.938;2023-05-07T08:05:55;13.80;;;11.53;;
20458;SDS011;10388;52.314;7.938;2023-05-07T08:08:25;11.90;;;10.17;;
20458;SDS011;10388;52.314;7.938;2023-05-07T08:10:56;13.63;;;11.17;;
20458;SDS011;10388;52.314;7.938;2023-05-07T08:13:26;12.83;;;10.70;;
20458;SDS011;10388;52.314;7.938;2023-05-07T08:15:57;12.60;;;10.87;;
20458;SDS011;10388;52.314;7.938;2023-05-07T08:18:27;13.53;;;11.17;;
20458;SDS011;10388;52.314;7.938;2023-05-07T08:20:58;12.23;;;10.93;;
20458;SDS011;10388;52.314;7.938;2023-05-07T08:23:29;12.10;;;9.97;;
20458;SDS011;10388;52.314;7.938;2023-05-07T08:26:00;13.03;;;10.67;;
20458;SDS011;10388;52.314;7.938;2023-05-07T08:28:30;12.40;;;10.13;;
20458;SDS011;10388;52.314;7.938;2023-05-07T08:31:01;12.83;;;10.37;;
20458;SDS011;10388;52.314;7.938;2023-05-07T08:33:32;13.33;;;10.63;;
20458;SDS011;10388;52.314;7.938;2023-05-07T08:36:02;13.00;;;10.30;;
20458;SDS011;10388;52.314;7.938;2023-05-07T08:38:33;12.10;;;10.27;;
20458;SDS011;10388;52.314;7.938;2023-05-07T08:41:04;12.17;;;10.30;;
20458;SDS011;10388;52.314;7.938;2023-05-07T08:43:34;13.27;;;10.60;;
20458;SDS011;10388;52.314;7.938;2023-05-07T08:46:08;13.00;;;10.17;;
20458;SDS011;10388;52.314;7.938;2023-05-07T08:48:40;11.03;;;9.80;;
20458;SDS011;10388;52.314;7.938;2023-05-07T08:51:16;10.47;;;9.03;;
20458;SDS011;10388;52.314;7.938;2023-05-07T08:53:50;12.63;;;9.77;;
20458;SDS011;10388;52.314;7.938;2023-05-07T08:56:21;11.67;;;8.90;;
20458;SDS011;10388;52.314;7.938;2023-05-07T08:58:51;11.33;;;8.77;;
20458;SDS011;10388;52.314;7.938;2023-05-07T09:01:26;10.67;;;9.13;;
20458;SDS011;10388;52.314;7.938;2023-05-07T09:03:57;11.60;;;9.13;;
20458;SDS011;10388;52.314;7.938;2023-05-07T09:06:28;10.37;;;8.70;;
20458;SDS011;10388;52.314;7.938;2023-05-07T09:08:58;10.37;;;8.87;;
20458;SDS011;10388;52.314;7.938;2023-05-07T09:11:31;10.40;;;9.30;;
20458;SDS011;10388;52.314;7.938;2023-05-07T09:14:01;9.70;;;8.70;;
20458;SDS011;10388;52.314;7.938;2023-05-07T09:16:32;9.87;;;8.77;;
20458;SDS011;10388;52.314;7.938;2023-05-07T09:19:03;9.70;;;8.67;;
20458;SDS011;10388;52.314;7.938;2023-05-07T09:21:33;10.60;;;8.63;;
20458;SDS011;10388;52.314;7.938;2023-05-07T09:24:05;10.80;;;8.40;;
20458;SDS011;10388;52.314;7.938;2023-05-07T09:26:35;9.93;;;8.93;;
20458;SDS011;10388;52.314;7.938;2023-05-07T09:29:07;10.53;;;8.83;;
20458;SDS011;10388;52.314;7.938;2023-05-07T09:31:40;10.57;;;8.90;;
20458;SDS011;10388;52.314;7.938;2023-05-07T09:34:10;9.33;;;8.27;;
20458;SDS011;10388;52.314;7.938;2023-05-07T09:36:41;11.40;;;8.97;;
20458;SDS011;10388;52.314;7.938;2023-05-07T09:39:11;10.83;;;8.30;;
20458;SDS011;10388;52.314;7.938;2023-05-07T09:41:43;8.57;;;7.70;;
20458;SDS011;10388;52.314;7.938;2023-05-07T09:44:15;10.50;;;8.27;;
20458;SDS011;10388;52.314;7.938;2023-05-07T09:46:45;8.40;;;7.43;;
20458;SDS011;10388;52.314;7.938;2023-05-07T09:49:22;9.03;;;8.13;;
20458;SDS011;10388;52.314;7.938;2023-05-07T09:51:54;10.63;;;8.10;;
20458;SDS011;10388;52.314;7.938;2023-05-07T09:54:26;10.60;;;8.83;;
20458;SDS011;10388;52.314;7.938;2023-05-07T09:57:04;9.50;;;8.47;;
20458;SDS011;10388;52.314;7.938;2023-05-07T09:59:36;9.30;;;8.20;;
20458;SDS011;10388;52.314;7.938;2023-05-07T10:02:08;9.40;;;8.37;;
20458;SDS011;10388;52.314;7.938;2023-05-07T10:04:40;11.20;;;8.40;;
20458;SDS011;10388;52.314;7.938;2023-05-07T10:07:11;9.03;;;8.13;;
20458;SDS011;10388;52.314;7.938;2023-05-07T10:09:42;8.93;;;8.03;;
20458;SDS011;10388;52.314;7.938;2023-05-07T10:12:14;8.23;;;7.40;;
20458;SDS011;10388;52.314;7.938;2023-05-07T10:14:45;8.63;;;7.70;;
20458;SDS011;10388;52.314;7.938;2023-05-07T10:17:16;8.77;;;7.53;;
20458;SDS011;10388;52.314;7.938;2023-05-07T10:19:46;8.40;;;7.30;;
20458;SDS011;10388;52.314;7.938;2023-05-07T10:22:18;8.97;;;7.37;;
20458;SDS011;10388;52.314;7.938;2023-05-07T10:24:50;7.20;;;6.50;;
20458;SDS011;10388;52.314;7.938;2023-05-07T10:27:24;8.00;;;7.20;;
20458;SDS011;10388;52.314;7.938;2023-05-07T10:32:42;7.33;;;6.63;;
20458;SDS011;10388;52.314;7.938;2023-05-07T10:35:20;9.07;;;7.20;;
20458;SDS011;10388;52.314;7.938;2023-05-07T10:37:53;7.80;;;7.00;;
20458;SDS011;10388;52.314;7.938;2023-05-07T10:40:24;8.37;;;6.80;;
20458;SDS011;10388;52.314;7.938;2023-05-07T10:42:56;8.60;;;7.23;;
20458;SDS011;10388;52.314;7.938;2023-05-07T10:45:29;7.43;;;6.73;;
20458;SDS011;10388;52.314;7.938;2023-05-07T10:50:46;7.43;;;6.63;;
20458;SDS011;10388;52.314;7.938;2023-05-07T10:55:48;7.13;;;6.43;;
20458;SDS011;10388;52.314;7.938;2023-05-07T11:01:00;7.73;;;6.87;;
20458;SDS011;10388;52.314;7.938;2023-05-07T11:03:31;8.47;;;6.53;;
20458;SDS011;10388;52.314;7.938;2023-05-07T11:06:08;8.30;;;6.73;;
20458;SDS011;10388;52.314;7.938;2023-05-07T11:08:52;6.60;;;6.00;;
20458;SDS011;10388;52.314;7.938;2023-05-07T11:17:13;6.07;;;5.47;;
20458;SDS011;10388;52.314;7.938;2023-05-07T11:19:50;7.97;;;6.37;;
20458;SDS011;10388;52.314;7.938;2023-05-07T11:25:02;5.90;;;5.40;;
20458;SDS011;10388;52.314;7.938;2023-05-07T11:27:33;5.70;;;5.20;;
20458;SDS011;10388;52.314;7.938;2023-05-07T11:30:04;6.30;;;5.70;;
20458;SDS011;10388;52.314;7.938;2023-05-07T11:32:35;6.20;;;5.60;;
20458;SDS011;10388;52.314;7.938;2023-05-07T11:35:06;8.60;;;5.67;;
20458;SDS011;10388;52.314;7.938;2023-05-07T11:37:38;7.57;;;5.40;;
20458;SDS011;10388;52.314;7.938;2023-05-07T11:40:09;6.07;;;5.47;;
20458;SDS011;10388;52.314;7.938;2023-05-07T11:42:43;7.53;;;5.50;;
20458;SDS011;10388;52.314;7.938;2023-05-07T11:45:19;5.77;;;5.20;;
20458;SDS011;10388;52.314;7.938;2023-05-07T11:47:55;5.37;;;4.87;;
20458;SDS011;10388;52.314;7.938;2023-05-07T11:50:25;5.77;;;5.23;;
20458;SDS011;10388;52.314;7.938;2023-05-07T11:52:56;6.87;;;5.03;;
20458;SDS011;10388;52.314;7.938;2023-05-07T11:55:26;5.47;;;4.87;;
20458;SDS011;10388;52.314;7.938;2023-05-07T11:57:57;5.90;;;5.40;;
20458;SDS011;10388;52.314;7.938;2023-05-07T12:00:28;6.07;;;5.43;;
20458;SDS011;10388;52.314;7.938;2023-05-07T12:03:02;5.63;;;5.13;;
20458;SDS011;10388;52.314;7.938;2023-05-07T12:05:36;5.80;;;4.83;;
20458;SDS011;10388;52.314;7.938;2023-05-07T12:08:13;5.47;;;4.97;;
20458;SDS011;10388;52.314;7.938;2023-05-07T12:10:50;5.67;;;5.17;;
20458;SDS011;10388;52.314;7.938;2023-05-07T12:13:22;5.30;;;4.80;;
20458;SDS011;10388;52.314;7.938;2023-05-07T12:15:55;6.23;;;4.90;;
20458;SDS011;10388;52.314;7.938;2023-05-07T12:18:26;5.70;;;5.20;;
20458;SDS011;10388;52.314;7.938;2023-05-07T12:20:57;6.17;;;5.33;;
20458;SDS011;10388;52.314;7.938;2023-05-07T12:23:29;8.70;;;5.13;;
20458;SDS011;10388;52.314;7.938;2023-05-07T12:26:00;6.00;;;4.77;;
20458;SDS011;10388;52.314;7.938;2023-05-07T12:28:31;5.70;;;5.10;;
20458;SDS011;10388;52.314;7.938;2023-05-07T12:31:07;5.63;;;5.03;;
20458;SDS011;10388;52.314;7.938;2023-05-07T12:33:38;4.60;;;4.20;;
20458;SDS011;10388;52.314;7.938;2023-05-07T12:36:11;5.30;;;4.80;;
20458;SDS011;10388;52.314;7.938;2023-05-07T12:38:42;6.00;;;4.77;;
20458;SDS011;10388;52.314;7.938;2023-05-07T12:41:13;6.77;;;5.43;;
20458;SDS011;10388;52.314;7.938;2023-05-07T12:43:44;6.63;;;5.40;;
20458;SDS011;10388;52.314;7.938;2023-05-07T12:46:15;6.83;;;5.40;;
20458;SDS011;10388;52.314;7.938;2023-05-07T12:48:48;7.07;;;5.30;;
20458;SDS011;10388;52.314;7.938;2023-05-07T12:51:19;5.13;;;4.63;;
20458;SDS011;10388;52.314;7.938;2023-05-07T12:53:49;5.43;;;4.90;;
20458;SDS011;10388;52.314;7.938;2023-05-07T12:56:20;5.97;;;4.43;;
20458;SDS011;10388;52.314;7.938;2023-05-07T12:58:50;5.37;;;4.87;;
20458;SDS011;10388;52.314;7.938;2023-05-07T13:01:21;5.07;;;4.57;;
20458;SDS011;10388;52.314;7.938;2023-05-07T13:03:53;5.17;;;4.67;;
20458;SDS011;10388;52.314;7.938;2023-05-07T13:06:24;5.83;;;5.13;;
20458;SDS011;10388;52.314;7.938;2023-05-07T13:08:55;4.63;;;4.10;;
20458;SDS011;10388;52.314;7.938;2023-05-07T13:11:25;6.23;;;4.87;;
20458;SDS011;10388;52.314;7.938;2023-05-07T13:13:56;4.77;;;4.37;;
20458;SDS011;10388;52.314;7.938;2023-05-07T13:16:26;5.00;;;4.20;;
20458;SDS011;10388;52.314;7.938;2023-05-07T13:18:57;6.33;;;4.93;;
20458;SDS011;10388;52.314;7.938;2023-05-07T13:21:28;4.83;;;4.33;;
20458;SDS011;10388;52.314;7.938;2023-05-07T13:24:00;6.00;;;4.20;;
20458;SDS011;10388;52.314;7.938;2023-05-07T13:26:31;4.67;;;4.27;;
20458;SDS011;10388;52.314;7.938;2023-05-07T13:29:01;4.40;;;4.00;;
20458;SDS011;10388;52.314;7.938;2023-05-07T13:31:32;4.37;;;3.97;;
20458;SDS011;10388;52.314;7.938;2023-05-07T13:34:03;4.43;;;4.03;;
20458;SDS011;10388;52.314;7.938;2023-05-07T13:36:34;4.50;;;3.70;;
20458;SDS011;10388;52.314;7.938;2023-05-07T13:39:07;4.60;;;4.20;;
20458;SDS011;10388;52.314;7.938;2023-05-07T13:41:37;5.53;;;4.93;;
20458;SDS011;10388;52.314;7.938;2023-05-07T13:44:08;4.40;;;4.00;;
20458;SDS011;10388;52.314;7.938;2023-05-07T13:46:38;4.10;;;3.57;;
20458;SDS011;10388;52.314;7.938;2023-05-07T13:49:09;5.07;;;4.10;;
20458;SDS011;10388;52.314;7.938;2023-05-07T13:51:41;5.47;;;4.17;;
20458;SDS011;10388;52.314;7.938;2023-05-07T13:54:11;4.47;;;4.07;;
20458;SDS011;10388;52.314;7.938;2023-05-07T13:56:42;5.10;;;3.83;;
20458;SDS011;10388;52.314;7.938;2023-05-07T13:59:12;4.87;;;4.37;;
20458;SDS011;10388;52.314;7.938;2023-05-07T14:01:44;5.77;;;4.90;;
20458;SDS011;10388;52.314;7.938;2023-05-07T14:04:14;4.20;;;3.80;;
20458;SDS011;10388;52.314;7.938;2023-05-07T14:06:45;4.27;;;3.97;;
20458;SDS011;10388;52.314;7.938;2023-05-07T14:09:16;4.07;;;3.77;;
20458;SDS011;10388;52.314;7.938;2023-05-07T14:11:46;3.33;;;3.03;;
20458;SDS011;10388;52.314;7.938;2023-05-07T14:14:21;4.73;;;4.03;;
20458;SDS011;10388;52.314;7.938;2023-05-07T14:16:51;3.70;;;3.40;;
20458;SDS011;10388;52.314;7.938;2023-05-07T14:19:22;4.10;;;3.13;;
20458;SDS011;10388;52.314;7.938;2023-05-07T14:21:52;4.07;;;3.43;;
20458;SDS011;10388;52.314;7.938;2023-05-07T14:24:23;4.00;;;3.70;;
20458;SDS011;10388;52.314;7.938;2023-05-07T14:26:54;4.57;;;3.20;;
20458;SDS011;10388;52.314;7.938;2023-05-07T14:29:24;3.20;;;2.90;;
20458;SDS011;10388;52.314;7.938;2023-05-07T14:31:55;3.70;;;3.10;;
20458;SDS011;10388;52.314;7.938;2023-05-07T14:34:26;2.93;;;2.73;;
20458;SDS011;10388;52.314;7.938;2023-05-07T14:36:56;2.90;;;2.60;;
20458;SDS011;10388;52.314;7.938;2023-05-07T14:39:27;3.37;;;3.07;;
20458;SDS011;10388;52.314;7.938;2023-05-07T14:41:58;3.50;;;3.07;;
20458;SDS011;10388;52.314;7.938;2023-05-07T14:44:28;3.43;;;3.00;;
20458;SDS011;10388;52.314;7.938;2023-05-07T14:46:59;3.33;;;2.80;;
20458;SDS011;10388;52.314;7.938;2023-05-07T14:49:29;4.07;;;3.10;;
20458;SDS011;10388;52.314;7.938;2023-05-07T14:52:00;3.30;;;3.00;;
20458;SDS011;10388;52.314;7.938;2023-05-07T14:54:36;3.93;;;2.90;;
20458;SDS011;10388;52.314;7.938;2023-05-07T14:57:08;3.10;;;2.80;;
20458;SDS011;10388;52.314;7.938;2023-05-07T14:59:39;4.80;;;3.30;;
20458;SDS011;10388;52.314;7.938;2023-05-07T15:02:11;18.00;;;4.53;;
20458;SDS011;10388;52.314;7.938;2023-05-07T15:04:42;4.13;;;3.27;;
20458;SDS011;10388;52.314;7.938;2023-05-07T15:07:15;4.43;;;3.00;;
20458;SDS011;10388;52.314;7.938;2023-05-07T15:09:46;6.97;;;4.00;;
20458;SDS011;10388;52.314;7.938;2023-05-07T15:12:17;3.90;;;3.17;;
20458;SDS011;10388;52.314;7.938;2023-05-07T15:14:47;3.93;;;3.50;;
20458;SDS011;10388;52.314;7.938;2023-05-07T15:17:18;3.73;;;3.03;;
20458;SDS011;10388;52.314;7.938;2023-05-07T15:19:48;3.93;;;3.43;;
20458;SDS011;10388;52.314;7.938;2023-05-07T15:22:19;3.43;;;3.13;;
20458;SDS011;10388;52.314;7.938;2023-05-07T15:24:51;6.00;;;3.70;;
20458;SDS011;10388;52.314;7.938;2023-05-07T15:27:21;5.33;;;3.63;;
20458;SDS011;10388;52.314;7.938;2023-05-07T15:29:52;3.57;;;3.27;;
20458;SDS011;10388;52.314;7.938;2023-05-07T15:32:23;3.77;;;3.33;;
20458;SDS011;10388;52.314;7.938;2023-05-07T15:34:53;3.73;;;3.43;;
20458;SDS011;10388;52.314;7.938;2023-05-07T15:37:24;3.30;;;3.00;;
20458;SDS011;10388;52.314;7.938;2023-05-07T15:39:54;3.77;;;3.33;;
20458;SDS011;10388;52.314;7.938;2023-05-07T15:42:25;3.70;;;3.40;;
20458;SDS011;10388;52.314;7.938;2023-05-07T15:44:55;3.30;;;3.00;;
20458;SDS011;10388;52.314;7.938;2023-05-07T15:47:26;5.27;;;3.90;;
20458;SDS011;10388;52.314;7.938;2023-05-07T15:49:56;5.03;;;3.97;;
20458;SDS011;10388;52.314;7.938;2023-05-07T15:52:27;4.20;;;3.80;;
20458;SDS011;10388;52.314;7.938;2023-05-07T15:54:58;3.93;;;3.50;;
20458;SDS011;10388;52.314;7.938;2023-05-07T15:57:28;4.90;;;3.57;;
20458;SDS011;10388;52.314;7.938;2023-05-07T15:59:59;4.27;;;3.87;;
20458;SDS011;10388;52.314;7.938;2023-05-07T16:02:30;3.57;;;3.27;;
20458;SDS011;10388;52.314;7.938;2023-05-07T16:05:00;4.50;;;4.10;;
20458;SDS011;10388;52.314;7.938;2023-05-07T16:07:32;4.10;;;3.80;;
20458;SDS011;10388;52.314;7.938;2023-05-07T16:10:03;3.97;;;3.60;;
20458;SDS011;10388;52.314;7.938;2023-05-07T16:12:33;4.07;;;3.70;;
20458;SDS011;10388;52.314;7.938;2023-05-07T16:15:04;4.13;;;3.73;;
20458;SDS011;10388;52.314;7.938;2023-05-07T16:17:35;4.00;;;3.70;;
20458;SDS011;10388;52.314;7.938;2023-05-07T16:20:06;4.00;;;3.63;;
20458;SDS011;10388;52.314;7.938;2023-05-07T16:22:38;4.40;;;4.00;;
20458;SDS011;10388;52.314;7.938;2023-05-07T16:25:08;4.50;;;4.10;;
20458;SDS011;10388;52.314;7.938;2023-05-07T16:27:39;3.73;;;3.43;;
20458;SDS011;10388;52.314;7.938;2023-05-07T16:30:09;4.43;;;3.97;;
20458;SDS011;10388;52.314;7.938;2023-05-07T16:32:40;5.53;;;4.70;;
20458;SDS011;10388;52.314;7.938;2023-05-07T16:35:11;7.40;;;4.50;;
20458;SDS011;10388;52.314;7.938;2023-05-07T16:37:41;5.73;;;5.23;;
20458;SDS011;10388;52.314;7.938;2023-05-07T16:40:12;6.40;;;5.17;;
20458;SDS011;10388;52.314;7.938;2023-05-07T16:42:42;7.53;;;5.67;;
20458;SDS011;10388;52.314;7.938;2023-05-07T16:45:13;6.17;;;5.57;;
20458;SDS011;10388;52.314;7.938;2023-05-07T16:47:44;6.23;;;5.63;;
20458;SDS011;10388;52.314;7.938;2023-05-07T16:50:14;6.40;;;5.80;;
20458;SDS011;10388;52.314;7.938;2023-05-07T16:52:45;6.20;;;5.60;;
20458;SDS011;10388;52.314;7.938;2023-05-07T16:55:15;6.23;;;5.63;;
20458;SDS011;10388;52.314;7.938;2023-05-07T16:57:46;6.90;;;6.30;;
20458;SDS011;10388;52.314;7.938;2023-05-07T17:00:16;8.03;;;5.77;;
20458;SDS011;10388;52.314;7.938;2023-05-07T17:02:47;6.33;;;5.73;;
20458;SDS011;10388;52.314;7.938;2023-05-07T17:05:17;7.30;;;6.20;;
20458;SDS011;10388;52.314;7.938;2023-05-07T17:07:48;6.53;;;5.93;;
20458;SDS011;10388;52.314;7.938;2023-05-07T17:10:20;6.57;;;5.97;;
20458;SDS011;10388;52.314;7.938;2023-05-07T17:12:51;7.93;;;6.00;;
20458;SDS011;10388;52.314;7.938;2023-05-07T17:15:21;6.57;;;5.97;;
20458;SDS011;10388;52.314;7.938;2023-05-07T17:17:52;7.03;;;6.43;;
20458;SDS011;10388;52.314;7.938;2023-05-07T17:20:22;6.50;;;5.90;;
20458;SDS011;10388;52.314;7.938;2023-05-07T17:22:54;7.50;;;5.83;;
20458;SDS011;10388;52.314;7.938;2023-05-07T17:25:24;6.63;;;5.77;;
20458;SDS011;10388;52.314;7.938;2023-05-07T17:27:55;7.20;;;6.00;;
20458;SDS011;10388;52.314;7.938;2023-05-07T17:30:25;6.53;;;5.93;;
20458;SDS011;10388;52.314;7.938;2023-05-07T17:32:56;6.50;;;5.90;;
20458;SDS011;10388;52.314;7.938;2023-05-07T17:35:26;7.33;;;6.60;;
20458;SDS011;10388;52.314;7.938;2023-05-07T17:38:01;7.57;;;6.87;;
20458;SDS011;10388;52.314;7.938;2023-05-07T17:40:32;7.63;;;6.93;;
20458;SDS011;10388;52.314;7.938;2023-05-07T17:43:03;8.77;;;7.47;;
20458;SDS011;10388;52.314;7.938;2023-05-07T17:45:34;7.80;;;7.10;;
20458;SDS011;10388;52.314;7.938;2023-05-07T17:48:05;8.00;;;7.00;;
20458;SDS011;10388;52.314;7.938;2023-05-07T17:50:35;8.00;;;7.20;;
20458;SDS011;10388;52.314;7.938;2023-05-07T17:53:06;7.83;;;7.07;;
20458;SDS011;10388;52.314;7.938;2023-05-07T17:55:42;8.50;;;7.70;;
20458;SDS011;10388;52.314;7.938;2023-05-07T17:58:13;8.93;;;7.30;;
20458;SDS011;10388;52.314;7.938;2023-05-07T18:00:44;7.93;;;7.23;;
20458;SDS011;10388;52.314;7.938;2023-05-07T18:03:14;7.90;;;7.07;;
20458;SDS011;10388;52.314;7.938;2023-05-07T18:05:45;8.50;;;7.60;;
20458;SDS011;10388;52.314;7.938;2023-05-07T18:08:15;8.93;;;7.93;;
20458;SDS011;10388;52.314;7.938;2023-05-07T18:10:46;8.00;;;7.13;;
20458;SDS011;10388;52.314;7.938;2023-05-07T18:13:16;8.23;;;7.43;;
20458;SDS011;10388;52.314;7.938;2023-05-07T18:15:47;7.97;;;7.27;;
20458;SDS011;10388;52.314;7.938;2023-05-07T18:18:18;8.33;;;7.53;;
20458;SDS011;10388;52.314;7.938;2023-05-07T18:20:49;9.03;;;8.13;;
20458;SDS011;10388;52.314;7.938;2023-05-07T18:23:20;8.70;;;7.90;;
20458;SDS011;10388;52.314;7.938;2023-05-07T18:25:50;8.23;;;7.53;;
20458;SDS011;10388;52.314;7.938;2023-05-07T18:28:21;8.13;;;7.43;;
20458;SDS011;10388;52.314;7.938;2023-05-07T18:30:52;8.93;;;8.03;;
20458;SDS011;10388;52.314;7.938;2023-05-07T18:33:22;8.60;;;7.70;;
20458;SDS011;10388;52.314;7.938;2023-05-07T18:35:53;8.33;;;7.57;;
20458;SDS011;10388;52.314;7.938;2023-05-07T18:38:24;8.57;;;7.77;;
20458;SDS011;10388;52.314;7.938;2023-05-07T18:41:03;8.47;;;7.43;;
20458;SDS011;10388;52.314;7.938;2023-05-07T18:43:34;8.40;;;7.60;;
20458;SDS011;10388;52.314;7.938;2023-05-07T18:46:05;8.03;;;7.23;;
20458;SDS011;10388;52.314;7.938;2023-05-07T18:48:36;8.60;;;7.77;;